createdAt,value
2022-09-07T00:02:07.938Z,16.80
2022-09-07T00:04:43.651Z,16.80
2022-09-07T00:07:10.380Z,16.80
2022-09-07T00:09:37.063Z,16.80
2022-09-07T00:12:03.917Z,16.80
2022-09-07T00:14:30.776Z,16.90
2022-09-07T00:17:00.344Z,16.80
2022-09-07T00:19:27.006Z,16.80
2022-09-07T00:21:53.636Z,16.80
2022-09-07T00:24:20.286Z,16.80
2022-09-07T00:26:46.895Z,16.90
2022-09-07T00:29:13.533Z,16.90
2022-09-07T00:31:40.255Z,16.90
2022-09-07T00:34:06.952Z,17.00
2022-09-07T00:36:33.649Z,16.90
2022-09-07T00:39:00.269Z,16.90
2022-09-07T00:41:26.966Z,16.80
2022-09-07T00:44:00.447Z,16.80
2022-09-07T00:46:30.598Z,16.80
2022-09-07T00:49:12.087Z,16.80
2022-09-07T00:51:55.843Z,16.80
2022-09-07T00:54:28.371Z,16.80
2022-09-07T00:56:55.210Z,16.70
2022-09-07T00:59:34.549Z,16.70
2022-09-07T01:02:01.865Z,16.60
2022-09-07T01:04:30.371Z,16.60
2022-09-07T01:06:57.476Z,16.60
2022-09-07T01:09:33.041Z,16.60
2022-09-07T01:12:01.575Z,16.50
2022-09-07T01:14:42.283Z,16.50
2022-09-07T01:17:41.604Z,16.50
2022-09-07T01:20:29.226Z,16.40
2022-09-07T01:23:26.407Z,16.40
2022-09-07T01:26:11.874Z,16.40
2022-09-07T01:29:04.332Z,16.30
2022-09-07T01:32:02.406Z,16.30
2022-09-07T01:34:29.188Z,16.20
2022-09-07T01:37:35.500Z,16.20
2022-09-07T01:40:05.190Z,16.20
2022-09-07T01:42:56.219Z,16.10
2022-09-07T01:45:30.391Z,16.10
2022-09-07T01:48:26.194Z,16.10
2022-09-07T01:55:22.459Z,16.10
2022-09-07T01:57:58.233Z,16.10
2022-09-07T02:00:25.242Z,16.00
2022-09-07T02:03:00.605Z,16.00
2022-09-07T02:05:35.853Z,16.00
2022-09-07T02:08:10.631Z,16.00
2022-09-07T02:10:42.218Z,16.00
2022-09-07T02:13:35.291Z,16.00
2022-09-07T02:16:09.099Z,16.10
2022-09-07T02:18:58.581Z,16.10
2022-09-07T02:21:48.636Z,16.10
2022-09-07T02:24:26.226Z,16.10
2022-09-07T02:29:57.273Z,16.10
2022-09-07T02:32:23.962Z,16.10
2022-09-07T02:34:57.380Z,16.10
2022-09-07T02:37:27.062Z,16.10
2022-09-07T02:40:00.074Z,16.10
2022-09-07T02:42:42.560Z,16.10
2022-09-07T02:45:12.036Z,16.10
2022-09-07T02:47:53.606Z,16.10
2022-09-07T02:50:39.415Z,16.10
2022-09-07T02:53:31.465Z,16.10
2022-09-07T02:56:25.051Z,16.10
2022-09-07T02:59:07.425Z,16.00
2022-09-07T03:01:55.683Z,16.10
2022-09-07T03:04:48.971Z,16.10
2022-09-07T03:07:26.644Z,16.10
2022-09-07T03:09:56.307Z,16.10
2022-09-07T03:12:23.256Z,16.10
2022-09-07T03:14:50.551Z,16.10
2022-09-07T03:17:17.269Z,16.10
2022-09-07T03:19:43.951Z,16.20
2022-09-07T03:22:27.972Z,16.20
2022-09-07T03:24:54.587Z,16.10
2022-09-07T03:27:24.660Z,16.10
2022-09-07T03:29:51.453Z,16.10
2022-09-07T03:32:25.564Z,16.20
2022-09-07T03:34:55.175Z,16.20
2022-09-07T03:37:25.007Z,16.20
2022-09-07T03:39:51.831Z,16.20
2022-09-07T03:42:18.671Z,16.10
2022-09-07T03:44:45.320Z,16.20
2022-09-07T03:47:12.592Z,16.20
2022-09-07T03:49:39.425Z,16.20
2022-09-07T03:52:06.178Z,16.20
2022-09-07T03:54:34.946Z,16.20
2022-09-07T03:57:15.090Z,16.20
2022-09-07T03:59:41.754Z,16.20
2022-09-07T04:02:11.523Z,16.30
2022-09-07T04:04:38.434Z,16.30
2022-09-07T04:07:05.410Z,16.30
2022-09-07T04:09:32.290Z,16.30
2022-09-07T04:11:58.984Z,16.30
2022-09-07T04:14:34.594Z,16.30
2022-09-07T04:17:01.298Z,16.20
2022-09-07T04:19:29.556Z,16.20
2022-09-07T04:21:56.219Z,16.20
2022-09-07T04:24:31.784Z,16.20
2022-09-07T04:26:58.592Z,16.20
2022-09-07T04:29:25.279Z,16.20
2022-09-07T04:31:51.916Z,16.10
2022-09-07T04:34:18.542Z,16.10
2022-09-07T04:36:45.202Z,16.10
2022-09-07T04:39:14.348Z,16.10
2022-09-07T04:41:41.048Z,16.10
2022-09-07T04:44:07.801Z,16.10
2022-09-07T04:46:36.537Z,16.10
2022-09-07T04:49:12.380Z,16.00
2022-09-07T04:51:39.771Z,16.00
2022-09-07T04:54:06.621Z,16.00
2022-09-07T04:56:33.950Z,16.00
2022-09-07T04:59:03.817Z,16.00
2022-09-07T05:01:30.634Z,15.90
2022-09-07T05:04:02.472Z,15.90
2022-09-07T05:06:29.536Z,15.90
2022-09-07T05:11:49.318Z,15.90
2022-09-07T05:14:22.375Z,15.90
2022-09-07T05:16:49.158Z,15.90
2022-09-07T05:19:15.789Z,15.90
2022-09-07T05:21:42.728Z,15.80
2022-09-07T05:24:18.481Z,15.80
2022-09-07T05:26:45.192Z,15.80
2022-09-07T05:31:58.567Z,15.80
2022-09-07T05:36:55.136Z,15.80
2022-09-07T05:40:18.064Z,15.80
2022-09-07T05:42:44.727Z,15.80
2022-09-07T05:45:11.717Z,15.80
2022-09-07T05:47:38.533Z,15.80
2022-09-07T05:50:07.169Z,15.80
2022-09-07T05:52:36.351Z,15.80
2022-09-07T05:55:26.213Z,15.80
2022-09-07T05:57:57.850Z,15.90
2022-09-07T06:00:27.891Z,15.90
2022-09-07T06:02:54.581Z,15.90
2022-09-07T06:05:21.283Z,16.00
2022-09-07T06:07:48.082Z,16.00
2022-09-07T06:13:03.563Z,16.10
2022-09-07T06:15:32.729Z,16.10
2022-09-07T06:18:01.822Z,16.10
2022-09-07T06:20:28.440Z,16.10
2022-09-07T06:22:55.023Z,16.10
2022-09-07T06:25:21.791Z,16.10
2022-09-07T06:27:49.439Z,16.20
2022-09-07T06:30:17.649Z,16.20
2022-09-07T06:32:44.783Z,16.20
2022-09-07T06:35:13.761Z,16.20
2022-09-07T06:37:41.122Z,16.30
2022-09-07T06:40:08.703Z,16.40
2022-09-07T06:42:35.542Z,16.50
2022-09-07T06:45:02.375Z,16.60
2022-09-07T06:47:37.527Z,16.70
2022-09-07T06:56:34.752Z,17.00
2022-09-07T07:02:23.920Z,17.20
2022-09-07T07:07:55.530Z,17.40
2022-09-07T07:10:38.494Z,17.50
2022-09-07T07:13:05.331Z,17.60
2022-09-07T07:15:50.180Z,17.70
2022-09-07T07:18:38.684Z,17.80
2022-09-07T07:29:32.091Z,18.20
2022-09-07T07:32:10.942Z,18.10
2022-09-07T11:00:34.157Z,23.60
2022-09-07T11:31:04.070Z,23.30
2022-09-07T11:40:34.491Z,23.70
2022-09-07T11:58:28.395Z,24.40
2022-09-07T12:22:39.996Z,25.30
2022-09-07T12:36:48.398Z,25.00
2022-09-07T12:58:41.250Z,24.50
2022-09-07T13:01:40.189Z,24.40
2022-09-07T13:04:47.874Z,24.40
2022-09-07T13:10:33.763Z,24.80
2022-09-07T13:19:47.007Z,24.30
2022-09-07T13:22:36.011Z,24.40
2022-09-07T13:25:33.258Z,24.40
2022-09-07T13:28:31.943Z,24.30
2022-09-07T13:31:23.631Z,24.10
2022-09-07T13:33:56.054Z,24.00
2022-09-07T13:45:03.541Z,24.10
2022-09-07T13:51:05.953Z,24.50
2022-09-07T13:53:42.350Z,24.80
2022-09-07T13:56:41.900Z,24.80
2022-09-07T13:59:28.200Z,24.60
2022-09-07T14:02:03.880Z,24.40
2022-09-07T14:26:20.614Z,24.10
2022-09-07T14:28:54.811Z,24.00
2022-09-07T14:41:30.176Z,24.00
2022-09-07T14:51:34.997Z,24.30
2022-09-07T14:54:43.227Z,24.40
2022-09-07T14:57:31.397Z,24.60
2022-09-07T15:00:31.456Z,24.60
2022-09-07T15:10:34.386Z,24.60
2022-09-07T15:13:41.707Z,24.60
2022-09-07T15:16:39.126Z,24.40
2022-09-07T15:32:28.707Z,24.50
2022-09-07T15:54:13.820Z,24.70
2022-09-07T16:00:22.286Z,24.30
2022-09-07T16:03:07.496Z,24.10
2022-09-07T16:05:42.453Z,24.00
2022-09-07T16:08:25.627Z,24.00
2022-09-07T16:11:24.001Z,24.00
2022-09-07T16:14:04.483Z,24.10
2022-09-07T16:20:32.232Z,24.00
2022-09-07T16:26:05.301Z,23.90
2022-09-07T17:01:00.674Z,23.30
2022-09-07T17:03:28.400Z,23.30
2022-09-07T17:14:47.128Z,23.00
2022-09-07T17:17:13.742Z,23.00
2022-09-07T17:19:40.582Z,22.90
2022-09-07T17:22:09.177Z,22.80
2022-09-07T17:24:48.586Z,22.80
2022-09-07T17:27:18.084Z,22.80
2022-09-07T17:29:44.873Z,22.80
2022-09-07T17:32:26.927Z,22.80
2022-09-07T17:34:56.835Z,22.70
2022-09-07T17:37:23.529Z,22.70
2022-09-07T17:39:50.265Z,22.60
2022-09-07T17:42:17.037Z,22.60
2022-09-07T17:44:53.088Z,22.50
2022-09-07T17:47:20.003Z,22.40
2022-09-07T17:49:47.911Z,22.30
2022-09-07T17:52:14.549Z,22.20
2022-09-07T17:54:42.034Z,22.10
2022-09-07T17:57:09.007Z,22.00
2022-09-07T18:05:07.022Z,21.80
2022-09-07T18:07:34.045Z,21.70
2022-09-07T18:10:00.623Z,21.60
2022-09-07T18:12:27.220Z,21.60
2022-09-07T18:14:54.105Z,21.50
2022-09-07T18:17:42.471Z,21.50
2022-09-07T18:22:53.024Z,21.40
2022-09-07T18:25:20.690Z,21.40
2022-09-07T18:29:03.013Z,21.30
2022-09-07T18:30:38.085Z,21.30
2022-09-07T18:33:07.148Z,21.20
2022-09-07T18:35:34.175Z,21.20
2022-09-07T18:38:01.768Z,21.10
2022-09-07T18:40:28.412Z,21.10
2022-09-07T18:43:04.573Z,21.10
2022-09-07T18:45:43.465Z,21.00
2022-09-07T18:48:25.079Z,21.00
2022-09-07T18:51:09.675Z,21.00
2022-09-07T18:53:39.851Z,20.90
2022-09-07T18:58:58.183Z,20.90
2022-09-07T19:01:33.825Z,20.80
2022-09-07T19:04:03.973Z,20.80
2022-09-07T19:06:30.571Z,20.80
2022-09-07T19:09:07.595Z,20.70
2022-09-07T19:11:41.668Z,20.60
2022-09-07T19:14:17.438Z,20.60
2022-09-07T19:17:04.843Z,20.50
2022-09-07T19:19:36.011Z,20.50
2022-09-07T19:22:30.320Z,20.50
2022-09-07T19:54:43.307Z,20.10
2022-09-07T19:57:10.112Z,20.20
2022-09-07T19:59:37.001Z,20.20
2022-09-07T20:02:24.023Z,20.10
2022-09-07T20:04:50.759Z,20.10
2022-09-07T20:07:34.010Z,20.20
2022-09-07T20:10:00.797Z,20.20
2022-09-07T20:12:27.456Z,20.20
2022-09-07T20:14:54.190Z,20.20
2022-09-07T20:17:20.820Z,20.20
2022-09-07T20:19:50.407Z,20.10
2022-09-07T20:22:17.097Z,20.00
2022-09-07T20:24:56.223Z,20.00
2022-09-07T20:27:25.733Z,19.90
2022-09-07T20:29:53.735Z,19.90
2022-09-07T20:32:22.799Z,19.90
2022-09-07T20:35:17.123Z,19.90
2022-09-07T20:37:48.765Z,19.90
2022-09-07T20:40:23.986Z,19.80
2022-09-07T20:43:02.242Z,19.80
2022-09-07T20:45:35.365Z,19.80
2022-09-07T20:48:02.160Z,19.80
2022-09-07T20:50:31.413Z,19.90
2022-09-07T20:53:04.003Z,19.90
2022-09-07T20:55:30.637Z,19.90
2022-09-07T20:58:09.104Z,19.90
2022-09-07T21:00:35.832Z,19.90
2022-09-07T21:03:02.622Z,19.90
2022-09-07T21:05:37.687Z,19.90
2022-09-07T21:08:04.796Z,19.90
2022-09-07T21:26:54.919Z,19.90
2022-09-07T21:29:26.674Z,19.90
2022-09-07T21:32:04.001Z,19.90
2022-09-07T21:34:31.264Z,19.90
2022-09-07T21:37:03.599Z,19.90
2022-09-07T21:50:27.558Z,19.80
2022-09-07T21:52:55.133Z,19.70
2022-09-07T21:55:24.192Z,19.70
2022-09-07T21:57:51.084Z,19.70
2022-09-07T22:06:36.956Z,19.60
2022-09-07T22:09:04.633Z,19.60
2022-09-07T22:11:45.285Z,19.60
2022-09-07T22:14:40.036Z,19.60
2022-09-07T22:17:06.992Z,19.60
2022-09-07T22:19:36.592Z,19.60
2022-09-07T22:22:11.126Z,19.60
2022-09-07T22:24:37.979Z,19.60
2022-09-07T22:27:04.857Z,19.60
2022-09-07T22:29:31.652Z,19.60
2022-09-07T22:32:29.354Z,19.50
2022-09-07T22:35:31.026Z,19.60
2022-09-07T22:37:56.929Z,19.60
2022-09-07T22:40:24.094Z,19.60
2022-09-07T22:43:00.513Z,19.60
2022-09-07T22:45:32.677Z,19.60
2022-09-07T22:48:05.482Z,19.60
2022-09-07T22:50:57.210Z,19.60
2022-09-07T22:53:27.343Z,19.50
2022-09-07T22:55:54.914Z,19.40
2022-09-07T22:58:38.924Z,19.40
2022-09-07T23:01:18.241Z,19.30
2022-09-07T23:03:45.338Z,19.30
2022-09-07T23:06:21.580Z,19.20
2022-09-07T23:08:49.162Z,19.20
2022-09-07T23:11:25.543Z,19.20
2022-09-07T23:14:02.876Z,19.30
2022-09-07T23:16:42.670Z,19.30
2022-09-07T23:19:10.700Z,19.20
2022-09-07T23:21:37.825Z,19.20
2022-09-07T23:26:45.892Z,19.20
2022-09-07T23:29:24.056Z,19.10
2022-09-07T23:31:50.793Z,19.10
2022-09-07T23:34:17.497Z,19.10
2022-09-07T23:36:48.279Z,19.10
2022-09-07T23:39:14.952Z,19.10
2022-09-07T23:41:52.841Z,19.00
2022-09-07T23:44:19.809Z,19.00
2022-09-07T23:49:38.971Z,19.00
2022-09-07T23:52:14.508Z,19.00
2022-09-07T23:54:41.243Z,19.00
2022-09-07T23:57:17.022Z,19.00
2022-09-07T23:59:43.657Z,19.00
